createdAt,value
2018-05-25T00:00:45.984Z,19.39
2018-05-25T00:01:45.894Z,19.34
2018-05-25T00:02:45.795Z,19.37
2018-05-25T00:03:45.703Z,19.40
2018-05-25T00:04:45.610Z,19.34
2018-05-25T00:05:45.507Z,19.36
2018-05-25T00:06:45.411Z,19.41
2018-05-25T00:07:45.322Z,19.34
2018-05-25T00:08:45.219Z,19.27
2018-05-25T00:09:45.127Z,19.34
2018-05-25T00:10:45.041Z,19.27
2018-05-25T00:11:44.937Z,19.31
2018-05-25T00:12:44.850Z,19.30
2018-05-25T00:13:44.759Z,19.31
2018-05-25T00:14:44.651Z,19.24
2018-05-25T00:15:44.562Z,19.18
2018-05-25T00:16:44.460Z,19.26
2018-05-25T00:17:44.368Z,19.26
2018-05-25T00:18:44.274Z,19.18
2018-05-25T00:19:44.169Z,19.15
2018-05-25T00:20:44.081Z,19.12
2018-05-25T00:21:43.989Z,19.07
2018-05-25T00:22:43.894Z,19.02
2018-05-25T00:23:43.804Z,19.02
2018-05-25T00:24:43.734Z,18.98
2018-05-25T00:25:43.601Z,18.98
2018-05-25T00:26:43.514Z,19.02
2018-05-25T00:27:43.424Z,18.89
2018-05-25T00:28:43.330Z,18.84
2018-05-25T00:29:43.227Z,18.84
2018-05-25T00:30:43.131Z,18.88
2018-05-25T00:31:43.028Z,18.75
2018-05-25T00:32:42.947Z,18.77
2018-05-25T00:33:42.852Z,18.74
2018-05-25T00:34:42.745Z,18.90
2018-05-25T00:35:42.657Z,18.83
2018-05-25T00:36:42.550Z,18.80
2018-05-25T00:37:42.458Z,18.75
2018-05-25T00:38:42.372Z,18.73
2018-05-25T00:39:42.269Z,18.74
2018-05-25T00:40:42.173Z,18.86
2018-05-25T00:41:42.083Z,18.84
2018-05-25T00:42:41.985Z,18.80
2018-05-25T00:43:41.892Z,18.73
2018-05-25T00:44:41.793Z,18.81
2018-05-25T00:45:41.701Z,18.68
2018-05-25T00:46:41.605Z,18.66
2018-05-25T00:47:41.503Z,18.73
2018-05-25T00:48:41.414Z,18.68
2018-05-25T00:49:41.323Z,18.71
2018-05-25T00:50:41.214Z,18.62
2018-05-25T00:51:41.127Z,18.63
2018-05-25T00:52:41.035Z,18.63
2018-05-25T00:53:40.932Z,18.66
2018-05-25T00:54:40.846Z,18.59
2018-05-25T00:55:40.744Z,18.68
2018-05-25T00:56:40.648Z,18.68
2018-05-25T00:57:40.558Z,18.58
2018-05-25T00:58:40.459Z,18.60
2018-05-25T00:59:40.370Z,18.55
2018-05-25T01:00:40.263Z,18.50
2018-05-25T01:01:40.173Z,18.58
2018-05-25T01:02:40.075Z,18.49
2018-05-25T01:03:39.972Z,18.47
2018-05-25T01:04:39.889Z,18.44
2018-05-25T01:05:39.797Z,18.53
2018-05-25T01:06:39.691Z,18.45
2018-05-25T01:07:39.599Z,18.49
2018-05-25T01:08:39.495Z,18.44
2018-05-25T01:09:39.406Z,18.45
2018-05-25T01:10:39.316Z,18.41
2018-05-25T01:11:39.214Z,18.37
2018-05-25T01:12:39.120Z,18.47
2018-05-25T01:13:39.029Z,18.49
2018-05-25T01:14:38.930Z,18.44
2018-05-25T01:15:38.853Z,18.41
2018-05-25T01:16:38.737Z,18.34
2018-05-25T01:17:38.643Z,18.35
2018-05-25T01:18:38.798Z,18.34
2018-05-25T01:19:38.444Z,18.35
2018-05-25T01:20:38.361Z,18.22
2018-05-25T01:21:38.258Z,18.26
2018-05-25T01:22:38.162Z,18.33
2018-05-25T01:23:38.071Z,18.26
2018-05-25T01:24:37.966Z,18.25
2018-05-25T01:25:37.874Z,18.28
2018-05-25T01:26:37.777Z,18.33
2018-05-25T01:27:37.685Z,18.25
2018-05-25T01:28:37.889Z,18.26
2018-05-25T01:29:37.486Z,18.31
2018-05-25T01:30:37.400Z,18.28
2018-05-25T01:31:37.299Z,18.26
2018-05-25T01:32:37.209Z,18.10
2018-05-25T01:33:37.118Z,18.11
2018-05-25T01:34:37.013Z,18.13
2018-05-25T01:35:36.921Z,18.16
2018-05-25T01:36:36.819Z,18.18
2018-05-25T01:37:36.755Z,18.10
2018-05-25T01:38:36.634Z,18.13
2018-05-25T01:39:36.529Z,18.01
2018-05-25T01:40:36.440Z,17.98
2018-05-25T01:41:36.348Z,18.10
2018-05-25T01:42:36.251Z,18.04
2018-05-25T01:43:36.159Z,18.05
2018-05-25T01:44:36.052Z,17.94
2018-05-25T01:45:35.960Z,17.86
2018-05-25T01:46:35.863Z,17.87
2018-05-25T01:47:35.771Z,17.98
2018-05-25T01:48:35.977Z,18.00
2018-05-25T01:49:35.573Z,17.89
2018-05-25T01:50:35.480Z,17.95
2018-05-25T01:51:35.376Z,17.90
2018-05-25T01:52:35.291Z,17.92
2018-05-25T01:53:35.201Z,17.87
2018-05-25T01:54:35.099Z,17.94
2018-05-25T01:55:35.002Z,17.82
2018-05-25T01:56:34.899Z,17.87
2018-05-25T01:57:34.807Z,17.89
2018-05-25T01:58:35.019Z,17.90
2018-05-25T01:59:34.615Z,17.97
2018-05-25T02:00:34.522Z,17.92
2018-05-25T02:01:34.419Z,18.00
2018-05-25T02:02:34.331Z,17.94
2018-05-25T02:03:34.229Z,17.95
2018-05-25T02:04:34.140Z,17.83
2018-05-25T02:05:34.048Z,17.94
2018-05-25T02:06:33.941Z,17.83
2018-05-25T02:07:33.850Z,17.83
2018-05-25T02:08:34.049Z,17.85
2018-05-25T02:09:33.658Z,17.86
2018-05-25T02:10:33.564Z,17.94
2018-05-25T02:11:33.460Z,17.87
2018-05-25T02:12:33.373Z,17.89
2018-05-25T02:13:33.269Z,17.89
2018-05-25T02:14:33.183Z,17.86
2018-05-25T02:15:33.078Z,17.82
2018-05-25T02:16:32.988Z,17.72
2018-05-25T02:17:32.896Z,17.86
2018-05-25T02:18:32.848Z,17.89
2018-05-25T02:19:32.699Z,17.87
2018-05-25T02:20:32.592Z,17.85
2018-05-25T02:21:32.502Z,17.82
2018-05-25T02:22:32.415Z,17.85
2018-05-25T02:23:32.312Z,17.85
2018-05-25T02:24:32.219Z,17.80
2018-05-25T02:25:32.116Z,17.86
2018-05-25T02:26:32.029Z,17.86
2018-05-25T02:27:31.938Z,17.82
2018-05-25T02:28:32.083Z,17.74
2018-05-25T02:29:31.741Z,17.68
2018-05-25T02:30:31.634Z,17.72
2018-05-25T02:31:31.545Z,17.70
2018-05-25T02:32:31.445Z,17.80
2018-05-25T02:33:31.354Z,17.63
2018-05-25T02:34:31.246Z,17.65
2018-05-25T02:35:31.156Z,17.60
2018-05-25T02:36:31.066Z,17.60
2018-05-25T02:37:30.963Z,17.67
2018-05-25T02:38:30.877Z,17.59
2018-05-25T02:39:30.775Z,17.64
2018-05-25T02:40:30.677Z,17.60
2018-05-25T02:41:30.587Z,17.71
2018-05-25T02:42:30.488Z,17.67
2018-05-25T02:43:30.388Z,17.60
2018-05-25T02:44:30.294Z,17.60
2018-05-25T02:45:30.204Z,17.60
2018-05-25T02:46:30.099Z,17.65
2018-05-25T02:47:30.005Z,17.63
2018-05-25T02:48:29.906Z,17.59
2018-05-25T02:49:29.819Z,17.51
2018-05-25T02:50:29.720Z,17.45
2018-05-25T02:51:29.617Z,17.51
2018-05-25T02:52:29.525Z,17.52
2018-05-25T02:53:29.422Z,17.51
2018-05-25T02:54:29.338Z,17.46
2018-05-25T02:55:29.231Z,17.51
2018-05-25T02:56:29.138Z,17.52
2018-05-25T02:57:29.036Z,17.48
2018-05-25T02:58:28.948Z,17.42
2018-05-25T02:59:28.847Z,17.46
2018-05-25T03:00:28.753Z,17.41
2018-05-25T03:01:28.661Z,17.39
2018-05-25T03:02:28.554Z,17.39
2018-05-25T03:03:28.464Z,17.36
2018-05-25T03:04:28.365Z,17.36
2018-05-25T03:05:28.273Z,17.34
2018-05-25T03:06:28.166Z,17.33
2018-05-25T03:07:28.076Z,17.33
2018-05-25T03:08:27.986Z,17.33
2018-05-25T03:09:27.886Z,17.33
2018-05-25T03:10:27.799Z,17.27
2018-05-25T03:11:27.693Z,17.27
2018-05-25T03:12:27.597Z,17.22
2018-05-25T03:13:27.495Z,17.19
2018-05-25T03:14:27.407Z,17.19
2018-05-25T03:15:27.302Z,17.24
2018-05-25T03:16:27.213Z,17.22
2018-05-25T03:17:27.122Z,17.23
2018-05-25T03:18:27.016Z,17.19
2018-05-25T03:19:26.924Z,17.20
2018-05-25T03:20:26.823Z,17.19
2018-05-25T03:21:26.732Z,17.19
2018-05-25T03:22:26.624Z,17.26
2018-05-25T03:23:26.533Z,17.14
2018-05-25T03:24:26.432Z,17.16
2018-05-25T03:25:26.342Z,17.14
2018-05-25T03:26:26.254Z,17.19
2018-05-25T03:27:26.151Z,17.19
2018-05-25T03:28:26.056Z,17.20
2018-05-25T03:29:25.955Z,17.15
2018-05-25T03:30:25.865Z,17.06
2018-05-25T03:31:25.774Z,17.09
2018-05-25T03:32:25.673Z,17.15
2018-05-25T03:33:25.570Z,17.19
2018-05-25T03:34:25.473Z,17.19
2018-05-25T03:35:25.371Z,17.22
2018-05-25T03:36:25.284Z,17.24
2018-05-25T03:37:25.196Z,17.24
2018-05-25T03:38:25.086Z,17.24
2018-05-25T03:39:25.000Z,17.22
2018-05-25T03:40:24.892Z,17.34
2018-05-25T03:41:24.798Z,17.34
2018-05-25T03:42:24.699Z,17.41
2018-05-25T03:43:24.859Z,17.33
2018-05-25T03:44:24.505Z,17.34
2018-05-25T03:45:24.412Z,17.31
2018-05-25T03:46:24.326Z,17.30
2018-05-25T03:47:24.223Z,17.34
2018-05-25T03:48:24.129Z,17.38
2018-05-25T03:49:24.026Z,17.46
2018-05-25T03:50:23.932Z,17.57
2018-05-25T03:51:23.830Z,17.82
2018-05-25T03:52:23.741Z,17.72
2018-05-25T03:53:23.644Z,17.87
2018-05-25T03:54:23.544Z,17.98
2018-05-25T03:55:23.453Z,17.90
2018-05-25T03:56:23.351Z,17.82
2018-05-25T03:57:23.261Z,17.90
2018-05-25T03:58:23.162Z,17.86
2018-05-25T03:59:23.070Z,17.83
2018-05-25T04:00:22.965Z,17.70
2018-05-25T04:01:22.871Z,17.78
2018-05-25T04:02:22.783Z,17.68
2018-05-25T04:03:22.680Z,17.72
2018-05-25T04:04:22.592Z,17.71
2018-05-25T04:05:22.489Z,17.70
2018-05-25T04:06:22.393Z,17.79
2018-05-25T04:07:22.291Z,17.76
2018-05-25T04:08:22.204Z,17.90
2018-05-25T04:09:22.112Z,17.98
2018-05-25T04:10:22.005Z,18.05
2018-05-25T04:11:21.915Z,18.23
2018-05-25T04:12:21.810Z,18.19
2018-05-25T04:13:21.718Z,18.11
2018-05-25T04:14:21.646Z,18.10
2018-05-25T04:15:21.528Z,18.18
2018-05-25T04:16:21.436Z,18.23
2018-05-25T04:17:21.332Z,18.29
2018-05-25T04:18:21.245Z,18.29
2018-05-25T04:19:21.155Z,18.11
2018-05-25T04:20:21.049Z,18.16
2018-05-25T04:21:20.959Z,18.11
2018-05-25T04:22:20.863Z,18.11
2018-05-25T04:23:20.760Z,18.05
2018-05-25T04:24:20.670Z,18.03
2018-05-25T04:25:20.569Z,18.10
2018-05-25T04:26:20.492Z,18.15
2018-05-25T04:27:20.389Z,18.35
2018-05-25T04:28:20.288Z,18.56
2018-05-25T04:29:20.200Z,18.66
2018-05-25T04:30:20.102Z,18.92
2018-05-25T04:31:19.999Z,19.33
2018-05-25T04:32:19.909Z,19.59
2018-05-25T04:33:19.811Z,19.88
2018-05-25T04:34:19.712Z,20.29
2018-05-25T04:35:19.624Z,20.34
2018-05-25T04:36:19.521Z,20.55
2018-05-25T04:37:19.429Z,20.74
2018-05-25T04:38:19.341Z,20.84
2018-05-25T04:39:19.252Z,20.90
2018-05-25T04:40:19.144Z,21.22
2018-05-25T04:41:19.052Z,21.29
2018-05-25T04:42:18.967Z,20.95
2018-05-25T04:43:19.150Z,20.80
2018-05-25T04:44:18.770Z,20.95
2018-05-25T04:45:18.680Z,20.36
2018-05-25T04:46:18.584Z,20.40
2018-05-25T04:47:18.494Z,20.72
2018-05-25T04:48:18.409Z,20.60
2018-05-25T04:49:18.305Z,21.27
2018-05-25T04:50:18.211Z,21.48
2018-05-25T04:51:18.119Z,21.45
2018-05-25T04:52:18.032Z,21.72
2018-05-25T04:53:17.935Z,21.91
2018-05-25T04:54:17.839Z,22.26
2018-05-25T04:55:17.746Z,22.50
2018-05-25T04:56:17.650Z,22.84
2018-05-25T04:57:17.562Z,23.08
2018-05-25T04:58:17.473Z,22.99
2018-05-25T04:59:17.387Z,22.72
2018-05-25T05:00:17.294Z,22.78
2018-05-25T05:01:17.204Z,23.03
2018-05-25T05:02:17.110Z,23.24
2018-05-25T05:03:17.007Z,22.81
2018-05-25T05:04:16.959Z,22.83
2018-05-25T05:05:16.840Z,22.80
2018-05-25T05:06:16.732Z,22.65
2018-05-25T05:07:16.639Z,22.00
2018-05-25T05:08:16.551Z,21.21
2018-05-25T05:09:16.474Z,21.27
2018-05-25T05:10:16.375Z,21.51
2018-05-25T05:11:16.282Z,21.52
2018-05-25T05:12:16.188Z,21.64
2018-05-25T05:13:16.098Z,21.85
2018-05-25T05:14:16.011Z,21.64
2018-05-25T05:15:15.921Z,21.50
2018-05-25T05:16:15.827Z,21.99
2018-05-25T05:17:15.735Z,22.02
2018-05-25T05:18:15.893Z,22.07
2018-05-25T05:19:15.550Z,22.47
2018-05-25T05:20:15.466Z,22.54
2018-05-25T05:21:15.382Z,22.54
2018-05-25T05:22:15.280Z,22.30
2018-05-25T05:23:15.188Z,22.17
2018-05-25T05:24:15.100Z,22.53
2018-05-25T05:25:15.005Z,22.69
2018-05-25T05:26:14.920Z,22.55
2018-05-25T05:27:14.827Z,22.75
2018-05-25T05:28:14.735Z,22.83
2018-05-25T05:29:14.645Z,23.03
2018-05-25T05:30:14.557Z,23.21
2018-05-25T05:31:14.466Z,22.91
2018-05-25T05:32:14.375Z,23.08
2018-05-25T05:33:14.283Z,23.54
2018-05-25T05:34:14.189Z,23.24
2018-05-25T05:35:14.098Z,23.25
2018-05-25T05:36:14.024Z,23.32
2018-05-25T05:37:13.934Z,23.41
2018-05-25T05:38:13.839Z,23.37
2018-05-25T05:39:13.749Z,23.09
2018-05-25T05:40:13.655Z,22.66
2018-05-25T05:41:13.566Z,23.02
2018-05-25T05:42:13.478Z,22.53
2018-05-25T05:43:13.388Z,22.68
2018-05-25T05:44:13.291Z,22.60
2018-05-25T05:45:13.214Z,22.75
2018-05-25T05:46:13.120Z,22.78
2018-05-25T05:47:13.037Z,22.90
2018-05-25T05:48:12.948Z,22.55
2018-05-25T05:49:12.864Z,23.00
2018-05-25T05:50:12.761Z,23.17
2018-05-25T05:51:12.676Z,23.24
2018-05-25T05:52:12.583Z,23.43
2018-05-25T05:53:12.491Z,23.76
2018-05-25T05:54:12.399Z,23.78
2018-05-25T05:55:12.305Z,23.77
2018-05-25T05:56:12.217Z,24.48
2018-05-25T05:57:12.139Z,24.48
2018-05-25T05:58:12.053Z,24.42
2018-05-25T05:59:11.962Z,24.39
2018-05-25T06:00:11.866Z,24.29
2018-05-25T06:01:11.776Z,24.42
2018-05-25T06:02:11.688Z,25.01
2018-05-25T06:03:11.610Z,24.99
2018-05-25T06:04:11.518Z,24.77
2018-05-25T06:05:11.426Z,24.58
2018-05-25T06:06:11.333Z,24.20
2018-05-25T06:07:11.242Z,24.17
2018-05-25T06:08:11.157Z,24.76
2018-05-25T06:09:11.067Z,24.60
2018-05-25T06:10:10.983Z,24.85
2018-05-25T06:11:10.898Z,24.81
2018-05-25T06:12:10.799Z,24.47
2018-05-25T06:13:10.709Z,24.47
2018-05-25T06:14:10.634Z,24.78
2018-05-25T06:15:10.544Z,24.55
2018-05-25T06:16:10.449Z,24.77
2018-05-25T06:17:10.357Z,24.48
2018-05-25T06:18:10.283Z,24.53
2018-05-25T06:19:10.194Z,24.61
2018-05-25T06:20:10.104Z,24.29
2018-05-25T06:21:10.019Z,24.60
2018-05-25T06:22:09.917Z,24.30
2018-05-25T06:23:09.828Z,24.40
2018-05-25T06:24:09.751Z,24.50
2018-05-25T06:25:09.660Z,24.33
2018-05-25T06:26:09.566Z,24.60
2018-05-25T06:27:09.477Z,24.51
2018-05-25T06:28:09.403Z,25.11
2018-05-25T06:29:09.308Z,24.93
2018-05-25T06:30:09.222Z,24.63
2018-05-25T06:31:09.132Z,24.85
2018-05-25T06:32:09.052Z,25.21
2018-05-25T06:33:08.961Z,25.63
2018-05-25T06:34:08.865Z,25.18
2018-05-25T06:35:08.785Z,25.29
2018-05-25T06:36:08.695Z,25.88
2018-05-25T06:37:08.605Z,25.40
2018-05-25T06:38:08.526Z,25.98
2018-05-25T06:39:08.434Z,26.23
2018-05-25T06:40:08.344Z,26.58
2018-05-25T06:41:08.252Z,25.91
2018-05-25T06:42:08.188Z,26.43
2018-05-25T06:43:08.090Z,26.15
2018-05-25T06:44:07.993Z,26.58
2018-05-25T06:45:07.927Z,26.63
2018-05-25T06:46:07.824Z,26.78
2018-05-25T06:47:07.733Z,26.47
2018-05-25T06:48:07.656Z,26.75
2018-05-25T06:49:07.567Z,26.38
2018-05-25T06:50:07.473Z,26.36
2018-05-25T06:51:07.398Z,25.75
2018-05-25T06:52:07.307Z,26.23
2018-05-25T06:53:07.212Z,26.60
2018-05-25T06:54:07.135Z,26.37
2018-05-25T06:55:07.045Z,26.81
2018-05-25T06:56:06.954Z,27.45
2018-05-25T06:57:06.935Z,27.98
2018-05-25T06:58:06.796Z,28.11
2018-05-25T06:59:06.707Z,27.37
2018-05-25T07:00:06.628Z,26.83
2018-05-25T07:01:06.527Z,26.62
2018-05-25T07:02:06.446Z,27.12
2018-05-25T07:03:06.355Z,27.71
2018-05-25T07:04:06.277Z,28.44
2018-05-25T07:05:06.187Z,28.60
2018-05-25T07:06:06.098Z,27.90
2018-05-25T07:07:06.038Z,28.05
2018-05-25T07:08:05.926Z,27.55
2018-05-25T07:09:05.849Z,26.80
2018-05-25T07:10:05.757Z,26.77
2018-05-25T07:11:05.680Z,27.36
2018-05-25T07:12:05.590Z,27.86
2018-05-25T07:13:05.510Z,28.19
2018-05-25T07:14:05.419Z,28.08
2018-05-25T07:15:05.329Z,26.99
2018-05-25T07:16:05.251Z,26.97
2018-05-25T07:17:05.206Z,27.32
2018-05-25T07:18:05.095Z,27.40
2018-05-25T07:19:04.990Z,27.74
2018-05-25T07:20:04.917Z,27.78
2018-05-25T07:21:04.820Z,27.55
2018-05-25T07:22:04.742Z,27.44
2018-05-25T07:23:04.906Z,27.80
2018-05-25T07:24:04.575Z,26.93
2018-05-25T07:25:04.485Z,26.75
2018-05-25T07:26:04.404Z,27.63
2018-05-25T07:27:04.314Z,27.51
2018-05-25T07:28:04.236Z,27.51
2018-05-25T07:29:04.144Z,26.92
2018-05-25T07:30:04.066Z,26.80
2018-05-25T07:31:03.976Z,26.58
2018-05-25T07:32:03.886Z,26.90
2018-05-25T07:33:03.806Z,26.68
2018-05-25T07:34:03.717Z,26.56
2018-05-25T07:35:03.637Z,26.59
2018-05-25T07:36:03.547Z,26.60
2018-05-25T07:37:03.467Z,26.53
2018-05-25T07:38:03.378Z,27.45
2018-05-25T07:39:03.321Z,27.42
2018-05-25T07:40:03.208Z,27.21
2018-05-25T07:41:03.129Z,26.90
2018-05-25T07:42:03.039Z,27.18
2018-05-25T07:43:02.962Z,27.20
2018-05-25T07:44:02.869Z,27.85
2018-05-25T07:45:02.794Z,28.27
2018-05-25T07:46:02.700Z,28.35
2018-05-25T07:47:02.611Z,28.20
2018-05-25T07:48:02.535Z,27.95
2018-05-25T07:49:02.442Z,28.12
2018-05-25T07:50:02.363Z,28.30
2018-05-25T07:51:02.278Z,28.23
2018-05-25T07:52:02.198Z,28.04
2018-05-25T07:53:02.112Z,28.07
2018-05-25T07:54:02.082Z,28.27
2018-05-25T07:55:01.936Z,28.37
2018-05-25T07:56:01.854Z,28.07
2018-05-25T07:57:01.764Z,28.35
2018-05-25T07:58:01.987Z,28.97
2018-05-25T07:59:01.595Z,29.44
2018-05-25T08:00:01.517Z,29.13
2018-05-25T08:01:01.426Z,28.57
2018-05-25T08:02:01.351Z,28.72
2018-05-25T08:03:01.256Z,27.82
2018-05-25T08:04:01.178Z,28.11
2018-05-25T08:05:01.088Z,27.92
2018-05-25T08:06:00.999Z,28.10
2018-05-25T08:07:00.918Z,27.70
2018-05-25T08:08:00.829Z,27.68
2018-05-25T08:09:00.751Z,27.40
2018-05-25T08:10:00.658Z,27.36
2018-05-25T08:11:00.568Z,26.71
2018-05-25T08:12:00.537Z,26.96
2018-05-25T08:13:00.398Z,27.32
2018-05-25T08:14:00.308Z,27.47
2018-05-25T08:15:00.218Z,27.40
2018-05-25T08:16:00.139Z,27.00
2018-05-25T08:17:00.048Z,27.00
2018-05-25T08:18:00.206Z,26.26
2018-05-25T08:18:59.867Z,26.10
2018-05-25T08:19:59.788Z,26.37
2018-05-25T08:20:59.696Z,26.28
2018-05-25T08:21:59.668Z,26.34
2018-05-25T08:22:59.519Z,26.13
2018-05-25T08:23:59.425Z,25.90
2018-05-25T08:24:59.347Z,25.70
2018-05-25T08:25:59.256Z,26.25
2018-05-25T08:26:59.165Z,26.77
2018-05-25T08:27:59.090Z,26.70
2018-05-25T08:28:58.983Z,27.26
2018-05-25T08:29:58.892Z,27.33
2018-05-25T08:30:58.802Z,27.42
2018-05-25T08:31:58.710Z,27.89
2018-05-25T08:32:58.620Z,28.14
2018-05-25T08:33:58.529Z,28.01
2018-05-25T08:34:58.439Z,28.91
2018-05-25T08:35:58.347Z,29.31
2018-05-25T08:36:58.268Z,28.35
2018-05-25T08:37:58.245Z,27.82
2018-05-25T08:38:58.086Z,27.75
2018-05-25T08:39:57.997Z,28.23
2018-05-25T08:40:57.905Z,28.74
2018-05-25T08:41:57.816Z,28.97
2018-05-25T08:42:57.725Z,29.07
2018-05-25T08:43:57.634Z,29.27
2018-05-25T08:44:57.542Z,28.96
2018-05-25T08:45:57.468Z,29.38
2018-05-25T08:46:57.373Z,30.00
2018-05-25T08:47:57.281Z,30.03
2018-05-25T08:48:57.192Z,30.15
2018-05-25T08:49:57.113Z,30.03
2018-05-25T08:50:57.022Z,30.31
2018-05-25T08:51:56.932Z,29.34
2018-05-25T08:52:56.854Z,28.91
2018-05-25T08:53:56.763Z,28.45
2018-05-25T08:54:56.671Z,28.22
2018-05-25T08:55:56.593Z,28.63
2018-05-25T08:56:56.505Z,28.82
2018-05-25T08:57:56.432Z,29.35
2018-05-25T08:58:56.334Z,28.72
2018-05-25T08:59:56.255Z,29.12
2018-05-25T09:00:56.164Z,29.29
2018-05-25T09:01:56.085Z,29.35
2018-05-25T09:02:55.995Z,29.04
2018-05-25T09:03:55.916Z,28.85
2018-05-25T09:04:55.825Z,29.42
2018-05-25T09:05:55.749Z,29.90
2018-05-25T09:06:55.656Z,30.28
2018-05-25T09:07:55.579Z,29.93
2018-05-25T09:08:55.501Z,28.79
2018-05-25T09:09:55.408Z,28.56
2018-05-25T09:10:55.330Z,28.59
2018-05-25T09:11:55.240Z,28.51
2018-05-25T09:12:55.162Z,29.14
2018-05-25T09:13:55.086Z,29.72
2018-05-25T09:14:54.992Z,29.49
2018-05-25T09:15:54.913Z,29.50
2018-05-25T09:16:54.835Z,29.16
2018-05-25T09:17:55.007Z,28.93
2018-05-25T09:18:54.666Z,28.64
2018-05-25T09:19:54.588Z,28.70
2018-05-25T09:20:54.497Z,28.88
2018-05-25T09:21:54.425Z,29.23
2018-05-25T09:22:54.353Z,29.32
2018-05-25T09:23:54.251Z,29.45
2018-05-25T09:24:54.171Z,29.05
2018-05-25T09:25:54.094Z,29.02
2018-05-25T09:26:54.003Z,29.12
2018-05-25T09:27:53.924Z,29.04
2018-05-25T09:28:53.845Z,28.94
2018-05-25T09:29:53.756Z,29.08
2018-05-25T09:30:53.694Z,29.61
2018-05-25T09:31:53.599Z,29.98
2018-05-25T09:32:53.508Z,30.09
2018-05-25T09:33:53.429Z,30.97
2018-05-25T09:34:53.351Z,31.31
2018-05-25T09:35:53.286Z,31.28
2018-05-25T09:36:53.182Z,31.66
2018-05-25T09:37:53.104Z,30.92
2018-05-25T09:38:53.026Z,30.37
2018-05-25T09:39:52.938Z,30.40
2018-05-25T09:40:52.856Z,29.69
2018-05-25T09:41:52.779Z,29.72
2018-05-25T09:42:52.700Z,30.47
2018-05-25T09:43:52.621Z,30.78
2018-05-25T09:44:52.546Z,30.70
2018-05-25T09:45:52.453Z,29.95
2018-05-25T09:46:52.375Z,28.47
2018-05-25T09:47:52.296Z,29.27
2018-05-25T09:48:52.257Z,29.65
2018-05-25T09:49:52.125Z,29.47
2018-05-25T09:50:52.048Z,30.44
2018-05-25T09:51:51.983Z,29.91
2018-05-25T09:52:51.891Z,30.27
2018-05-25T09:53:51.801Z,29.75
2018-05-25T09:54:51.724Z,30.30
2018-05-25T09:55:51.645Z,30.54
2018-05-25T09:56:51.567Z,30.30
2018-05-25T09:57:51.726Z,30.34
2018-05-25T09:58:51.396Z,30.90
2018-05-25T09:59:51.318Z,31.43
2018-05-25T10:00:51.240Z,30.91
2018-05-25T10:01:51.161Z,30.55
2018-05-25T10:02:51.074Z,30.70
2018-05-25T10:03:50.997Z,30.63
2018-05-25T10:04:50.914Z,31.09
2018-05-25T10:05:50.837Z,30.23
2018-05-25T10:06:50.759Z,30.24
2018-05-25T10:07:50.681Z,30.34
2018-05-25T10:08:50.589Z,30.40
2018-05-25T10:09:50.510Z,30.90
2018-05-25T10:10:50.432Z,31.03
2018-05-25T10:11:50.354Z,31.18
2018-05-25T10:12:50.275Z,31.73
2018-05-25T10:13:50.197Z,30.47
2018-05-25T10:14:50.118Z,29.60
2018-05-25T10:15:50.039Z,28.94
2018-05-25T10:16:49.951Z,28.62
2018-05-25T10:17:50.127Z,28.72
2018-05-25T10:18:49.794Z,30.09
2018-05-25T10:19:49.716Z,30.12
2018-05-25T10:20:49.637Z,30.84
2018-05-25T10:21:49.547Z,30.65
2018-05-25T10:22:49.466Z,29.60
2018-05-25T10:23:49.388Z,28.60
2018-05-25T10:24:49.310Z,28.63
2018-05-25T10:25:49.232Z,29.73
2018-05-25T10:26:49.142Z,30.06
2018-05-25T10:27:49.063Z,29.08
2018-05-25T10:28:49.000Z,29.72
2018-05-25T10:29:48.907Z,30.31
2018-05-25T10:30:48.828Z,29.91
2018-05-25T10:31:48.738Z,29.68
2018-05-25T10:32:48.659Z,30.48
2018-05-25T10:33:48.579Z,30.90
2018-05-25T10:34:48.502Z,30.37
2018-05-25T10:35:48.424Z,29.90
2018-05-25T10:36:48.334Z,30.16
2018-05-25T10:37:48.256Z,30.57
2018-05-25T10:38:48.177Z,30.83
2018-05-25T10:39:48.099Z,30.35
2018-05-25T10:40:48.021Z,30.48
2018-05-25T10:41:47.998Z,31.27
2018-05-25T10:42:47.864Z,31.29
2018-05-25T10:43:47.784Z,30.70
2018-05-25T10:44:47.694Z,29.94
2018-05-25T10:45:47.616Z,28.67
2018-05-25T10:46:47.540Z,29.29
2018-05-25T10:47:47.462Z,29.47
2018-05-25T10:48:47.380Z,29.68
2018-05-25T10:49:47.302Z,30.63
2018-05-25T10:50:47.224Z,30.25
2018-05-25T10:51:47.134Z,30.44
2018-05-25T10:52:47.056Z,29.53
2018-05-25T10:53:46.978Z,28.42
2018-05-25T10:54:46.899Z,28.07
2018-05-25T10:55:46.821Z,29.60
2018-05-25T10:56:46.730Z,30.13
2018-05-25T10:57:46.651Z,30.68
2018-05-25T10:58:46.573Z,30.85
2018-05-25T10:59:46.493Z,31.71
2018-05-25T11:00:46.416Z,31.94
2018-05-25T11:01:46.329Z,31.55
2018-05-25T11:02:46.248Z,32.26
2018-05-25T11:03:46.182Z,32.53
2018-05-25T11:04:46.091Z,31.31
2018-05-25T11:05:46.001Z,30.13
2018-05-25T11:06:45.921Z,29.73
2018-05-25T11:07:45.844Z,28.49
2018-05-25T11:08:45.764Z,27.54
2018-05-25T11:09:45.685Z,27.75
2018-05-25T11:10:45.599Z,29.17
2018-05-25T11:11:45.517Z,29.29
2018-05-25T11:12:45.442Z,29.54
2018-05-25T11:13:45.361Z,28.91
2018-05-25T11:14:45.269Z,29.27
2018-05-25T11:15:45.191Z,29.90
2018-05-25T11:16:45.113Z,29.95
2018-05-25T11:17:45.023Z,30.32
2018-05-25T11:18:44.944Z,31.28
2018-05-25T11:19:44.865Z,31.62
2018-05-25T11:20:44.776Z,31.07
2018-05-25T11:21:44.709Z,30.72
2018-05-25T11:22:44.617Z,29.50
2018-05-25T11:23:44.541Z,28.63
2018-05-25T11:24:44.450Z,28.20
2018-05-25T11:25:44.372Z,27.87
2018-05-25T11:26:44.292Z,28.32
2018-05-25T11:27:44.215Z,29.08
2018-05-25T11:28:44.123Z,29.57
2018-05-25T11:29:44.052Z,29.60
2018-05-25T11:30:43.966Z,29.94
2018-05-25T11:31:43.876Z,29.20
2018-05-25T11:32:43.799Z,29.10
2018-05-25T11:33:43.707Z,28.86
2018-05-25T11:34:43.641Z,28.97
2018-05-25T11:35:43.550Z,28.93
2018-05-25T11:36:43.460Z,28.97
2018-05-25T11:37:43.382Z,29.16
2018-05-25T11:38:43.290Z,29.54
2018-05-25T11:39:43.212Z,29.32
2018-05-25T11:40:43.122Z,28.89
2018-05-25T11:41:43.043Z,28.60
2018-05-25T11:42:42.953Z,28.74
2018-05-25T11:43:42.863Z,28.38
2018-05-25T11:44:42.783Z,28.56
2018-05-25T11:45:42.692Z,28.57
2018-05-25T11:46:42.613Z,28.49
2018-05-25T11:47:42.526Z,28.22
2018-05-25T11:48:42.445Z,28.10
2018-05-25T11:49:42.354Z,28.14
2018-05-25T11:50:42.263Z,28.10
2018-05-25T11:51:42.185Z,27.96
2018-05-25T11:52:42.093Z,27.47
2018-05-25T11:53:42.038Z,27.07
2018-05-25T11:54:41.925Z,27.55
2018-05-25T11:55:41.838Z,28.08
2018-05-25T11:56:41.756Z,28.14
2018-05-25T11:57:41.916Z,27.75
2018-05-25T11:58:41.573Z,27.49
2018-05-25T11:59:41.495Z,27.29
2018-05-25T12:00:41.405Z,27.74
2018-05-25T12:01:41.313Z,28.27
2018-05-25T12:02:41.248Z,28.08
2018-05-25T12:03:41.146Z,28.63
2018-05-25T12:04:41.059Z,28.82
2018-05-25T12:05:40.978Z,28.37
2018-05-25T12:06:40.925Z,28.19
2018-05-25T12:07:40.807Z,28.22
2018-05-25T12:08:40.715Z,28.19
2018-05-25T12:09:40.626Z,28.10
2018-05-25T12:10:40.547Z,28.19
2018-05-25T12:11:40.455Z,28.15
2018-05-25T12:12:40.377Z,28.39
2018-05-25T12:13:40.287Z,28.27
2018-05-25T12:14:40.211Z,28.20
2018-05-25T12:15:40.117Z,28.17
2018-05-25T12:16:40.039Z,28.33
2018-05-25T12:17:39.949Z,28.19
2018-05-25T12:18:39.859Z,28.15
2018-05-25T12:19:39.778Z,28.11
2018-05-25T12:20:39.689Z,28.30
2018-05-25T12:21:39.611Z,28.52
2018-05-25T12:22:39.519Z,28.69
2018-05-25T12:23:39.441Z,28.84
2018-05-25T12:24:39.353Z,28.76
2018-05-25T12:25:39.272Z,28.52
2018-05-25T12:26:39.181Z,28.49
2018-05-25T12:27:39.091Z,28.51
2018-05-25T12:28:39.012Z,28.47
2018-05-25T12:29:38.921Z,28.19
2018-05-25T12:30:38.843Z,28.14
2018-05-25T12:31:38.758Z,28.07
2018-05-25T12:32:38.662Z,28.04
2018-05-25T12:33:38.596Z,28.11
2018-05-25T12:34:38.493Z,28.01
2018-05-25T12:35:38.413Z,27.68
2018-05-25T12:36:38.324Z,27.82
2018-05-25T12:37:38.236Z,27.77
2018-05-25T12:38:38.154Z,27.64
2018-05-25T12:39:38.065Z,27.58
2018-05-25T12:40:37.973Z,27.59
2018-05-25T12:41:37.895Z,27.77
2018-05-25T12:42:37.803Z,27.71
2018-05-25T12:43:37.716Z,27.73
2018-05-25T12:44:37.634Z,27.47
2018-05-25T12:45:37.542Z,27.30
2018-05-25T12:46:37.453Z,27.05
2018-05-25T12:47:37.375Z,27.07
2018-05-25T12:48:37.283Z,27.08
2018-05-25T12:49:37.193Z,27.22
2018-05-25T12:50:37.114Z,27.45
2018-05-25T12:51:37.023Z,27.44